Time;durP1;ratioP1;P1;durP2;ratioP2;P2;SDS_P1;SDS_P2;PMS_P1;PMS_P2;Temp;Humidity;BMP_temperature;BMP_pressure;BME280_temperature;BME280_humidity;BME280_pressure;Samples;Min_cycle;Max_cycle;Signal;HPM_P1;HPM_P2
2021/10/20 00:01:56;;;;;;;24.90;17.60;;;;;;;8.53;48.10;101774.80;117518;1185;21921;-60
2021/10/20 00:04:24;;;;;;;24.20;17.70;;;;;;;8.60;48.23;101777.91;117425;1186;23542;-60
2021/10/20 00:06:53;;;;;;;25.60;17.10;;;;;;;8.66;48.24;101777.31;117468;1184;23512;-57
2021/10/20 00:09:21;;;;;;;24.20;17.40;;;;;;;8.70;48.18;101774.23;117467;1182;23442;-57
2021/10/20 00:12:09;;;;;;;25.80;17.40;;;;;;;8.79;48.40;101770.72;117365;1185;21842;-61
2021/10/20 00:14:37;;;;;;;24.30;17.00;;;;;;;8.87;48.38;101769.81;117527;1182;21855;-57
2021/10/20 00:17:06;;;;;;;31.70;18.80;;;;;;;8.98;48.21;101766.31;117478;1183;23857;-61
2021/10/20 00:19:36;;;;;;;;;;;;;;;9.10;48.02;101766.83;117432;1185;21844;-58
2021/10/20 00:22:04;;;;;;;23.60;15.70;;;;;;;9.14;48.26;101768.66;117458;1185;23530;-60
2021/10/20 00:24:33;;;;;;;22.10;15.10;;;;;;;9.13;48.38;101768.11;117488;1185;21870;-57
2021/10/20 00:27:01;;;;;;;24.80;16.10;;;;;;;9.14;48.40;101768.31;117544;1185;23468;-60
2021/10/20 00:29:29;;;;;;;22.60;15.30;;;;;;;9.16;48.22;101767.12;117507;1183;23445;-58
2021/10/20 00:31:58;;;;;;;23.30;16.50;;;;;;;9.18;48.47;101768.02;117500;1183;22622;-58
2021/10/20 00:34:26;;;;;;;22.00;16.00;;;;;;;9.20;48.41;101771.21;117497;1186;23463;-60
2021/10/20 00:36:54;;;;;;;23.70;16.90;;;;;;;9.22;48.30;101772.48;117491;1183;22912;-58
2021/10/20 00:39:22;;;;;;;24.10;17.40;;;;;;;9.23;48.45;101771.61;117508;1185;21888;-60
2021/10/20 00:41:52;;;;;;;27.80;17.50;;;;;;;9.27;48.44;101768.52;117465;1183;21860;-58
2021/10/20 00:44:20;;;;;;;26.60;16.50;;;;;;;9.31;48.33;101768.57;117423;1185;22653;-60
2021/10/20 00:46:49;;;;;;;22.10;15.60;;;;;;;9.33;48.48;101767.02;117402;1186;22892;-58
2021/10/20 00:49:17;;;;;;;22.70;17.00;;;;;;;9.37;48.55;101769.55;117443;1185;23754;-57
2021/10/20 00:51:46;;;;;;;23.20;16.20;;;;;;;9.40;48.54;101764.50;117475;1185;23475;-57
2021/10/20 00:54:14;;;;;;;24.80;16.60;;;;;;;9.43;48.50;101766.13;117487;1185;23439;-57
2021/10/20 00:56:42;;;;;;;23.10;16.40;;;;;;;9.47;48.43;101765.84;117486;1183;24161;-60
2021/10/20 00:59:10;;;;;;;27.60;17.20;;;;;;;9.55;48.22;101769.27;117541;1186;21895;-60
2021/10/20 01:01:39;;;;;;;24.20;16.70;;;;;;;9.61;48.26;101767.95;117549;1186;24148;-58
2021/10/20 01:04:07;;;;;;;25.20;16.80;;;;;;;9.64;48.32;101768.17;117459;1185;23455;-58
2021/10/20 01:06:37;;;;;;;24.00;16.80;;;;;;;9.65;48.33;101772.91;117558;1185;24145;-58
2021/10/20 01:09:05;;;;;;;21.60;16.40;;;;;;;9.67;48.25;101774.18;117448;1185;23001;-61
2021/10/20 01:11:34;;;;;;;24.60;16.80;;;;;;;9.77;48.22;101774.83;117525;1183;23465;-57
2021/10/20 01:14:02;;;;;;;34.60;18.90;;;;;;;9.76;48.38;101768.52;117421;1185;21865;-58
2021/10/20 01:16:30;;;;;;;21.90;16.70;;;;;;;9.82;48.38;101770.16;117347;1185;24194;-57
2021/10/20 01:19:01;;;;;;;27.20;17.00;;;;;;;9.85;48.40;101768.80;117350;1182;23464;-60
2021/10/20 01:21:30;;;;;;;25.90;16.70;;;;;;;9.90;48.33;101764.30;117446;1186;23442;-60
2021/10/20 01:23:58;;;;;;;24.80;17.50;;;;;;;9.94;48.35;101759.63;117352;1182;23469;-60
2021/10/20 01:26:28;;;;;;;23.20;16.70;;;;;;;9.96;48.31;101753.15;117447;1184;21865;-61
2021/10/20 01:28:56;;;;;;;26.20;17.40;;;;;;;9.97;48.29;101752.81;117430;1183;23547;-57
2021/10/20 01:31:24;;;;;;;23.20;16.40;;;;;;;10.00;48.26;101749.69;117440;1182;23461;-60
2021/10/20 01:33:53;;;;;;;24.90;16.70;;;;;;;10.05;48.49;101746.08;117717;1183;23573;-60
2021/10/20 01:36:21;;;;;;;27.70;18.90;;;;;;;10.11;48.33;101751.06;117496;1186;21864;-58
2021/10/20 01:38:51;;;;;;;26.20;18.50;;;;;;;10.14;48.19;101750.92;117550;1185;22899;-58
2021/10/20 01:41:20;;;;;;;;;;;;;;;10.06;48.34;101749.42;117525;1183;22649;-57
2021/10/20 01:43:56;;;;;;;23.50;15.90;;;;;;;10.03;48.27;101752.02;117494;1179;24222;-58
2021/10/20 01:46:25;;;;;;;27.40;17.80;;;;;;;10.00;48.20;101750.73;117551;1185;23461;-60
2021/10/20 01:48:53;;;;;;;23.60;16.90;;;;;;;9.98;48.17;101752.13;117529;1185;21855;-57
2021/10/20 01:51:21;;;;;;;24.50;16.40;;;;;;;10.02;48.24;101750.95;117635;1183;23130;-60
2021/10/20 01:53:49;;;;;;;21.90;15.60;;;;;;;10.06;48.27;101748.54;117576;1183;24138;-60
2021/10/20 01:56:18;;;;;;;28.40;17.70;;;;;;;10.04;48.31;101751.15;117433;1183;21825;-57
2021/10/20 01:58:47;;;;;;;25.60;17.60;;;;;;;10.01;48.35;101745.67;117510;1185;21898;-60
2021/10/20 02:01:15;;;;;;;25.40;18.40;;;;;;;10.00;48.23;101742.33;117400;1183;23449;-57
2021/10/20 02:03:45;;;;;;;26.20;18.70;;;;;;;10.06;48.24;101733.45;117529;1186;23478;-60
2021/10/20 02:06:14;;;;;;;26.50;18.60;;;;;;;10.04;48.40;101732.02;117499;1182;21833;-57
2021/10/20 02:08:43;;;;;;;25.70;17.50;;;;;;;10.04;48.26;101722.20;117379;1185;23548;-61
2021/10/20 02:11:11;;;;;;;26.30;18.80;;;;;;;10.01;48.21;101713.06;117527;1185;24185;-60
2021/10/20 02:13:40;;;;;;;23.90;18.10;;;;;;;9.97;48.33;101711.60;117534;1182;21858;-58
2021/10/20 02:16:08;;;;;;;28.70;18.90;;;;;;;9.93;48.30;101713.50;117448;1185;22915;-58
2021/10/20 02:18:37;;;;;;;24.80;18.40;;;;;;;9.90;48.37;101717.33;117448;1184;23539;-57
2021/10/20 02:21:05;;;;;;;23.90;17.70;;;;;;;9.88;48.29;101725.70;117289;1186;21898;-60
2021/10/20 02:23:33;;;;;;;25.00;18.10;;;;;;;9.87;48.33;101732.71;117655;1185;23439;-60
2021/10/20 02:26:02;;;;;;;29.90;17.50;;;;;;;9.88;48.11;101732.55;117556;1186;21854;-58
2021/10/20 02:28:31;;;;;;;24.60;17.10;;;;;;;9.80;48.23;101734.20;117517;1185;23366;-58
2021/10/20 02:31:00;;;;;;;24.50;17.50;;;;;;;9.76;48.18;101736.42;117590;1186;22827;-58
2021/10/20 02:33:28;;;;;;;26.10;17.70;;;;;;;9.70;48.18;101737.06;117538;1182;23447;-58
2021/10/20 02:35:57;;;;;;;25.00;16.90;;;;;;;9.69;48.13;101738.09;117516;1182;21844;-57
2021/10/20 02:38:25;;;;;;;25.40;17.50;;;;;;;9.68;48.21;101733.89;117506;1179;24152;-60
2021/10/20 02:40:53;;;;;;;25.30;18.60;;;;;;;9.70;48.00;101731.62;117514;1186;21876;-60
2021/10/20 02:43:21;;;;;;;28.20;17.30;;;;;;;9.65;48.11;101729.46;117405;1183;23624;-57
2021/10/20 02:45:50;;;;;;;27.60;17.80;;;;;;;9.60;48.17;101731.50;117552;1186;22324;-58
2021/10/20 02:48:19;;;;;;;25.20;18.30;;;;;;;9.58;48.19;101733.55;117647;1182;23497;-60
2021/10/20 02:50:47;;;;;;;22.90;16.80;;;;;;;9.59;48.10;101738.30;117511;1185;23570;-58
2021/10/20 02:53:15;;;;;;;24.80;17.00;;;;;;;9.49;48.37;101742.20;117381;1182;21879;-61
2021/10/20 02:55:43;;;;;;;26.80;16.50;;;;;;;9.47;48.24;101742.18;117384;1186;22985;-58
2021/10/20 02:58:12;;;;;;;24.90;16.70;;;;;;;9.47;48.29;101743.42;117403;1182;23516;-57
2021/10/20 03:00:40;;;;;;;24.20;17.10;;;;;;;9.45;48.19;101742.49;117404;1182;23563;-60
2021/10/20 03:03:08;;;;;;;24.40;17.20;;;;;;;9.34;48.31;101740.77;117429;1184;23433;-60
2021/10/20 03:05:37;;;;;;;23.40;16.80;;;;;;;9.32;48.34;101745.64;117451;1185;24298;-60
2021/10/20 03:08:05;;;;;;;27.60;17.60;;;;;;;9.32;48.14;101747.56;117445;1183;21860;-61
2021/10/20 03:10:33;;;;;;;26.40;17.60;;;;;;;9.22;48.36;101746.21;117429;1185;22837;-57
2021/10/20 03:13:02;;;;;;;27.00;17.70;;;;;;;9.26;48.28;101748.17;117446;1183;21919;-58
2021/10/20 03:15:30;;;;;;;26.30;17.40;;;;;;;9.28;48.16;101749.44;117518;1185;23139;-58
2021/10/20 03:17:58;;;;;;;25.70;17.00;;;;;;;9.26;48.35;101748.89;117463;1186;21855;-59
2021/10/20 03:20:26;;;;;;;28.50;19.10;;;;;;;9.29;48.39;101746.13;117507;1182;24233;-59
2021/10/20 03:22:55;;;;;;;26.30;18.90;;;;;;;9.32;48.36;101745.47;117548;1185;22916;-58
2021/10/20 03:25:23;;;;;;;28.30;18.30;;;;;;;9.34;48.13;101746.02;117530;1182;21836;-57
2021/10/20 03:27:52;;;;;;;27.70;17.60;;;;;;;9.33;48.41;101744.26;117515;1185;22955;-60
2021/10/20 03:30:21;;;;;;;24.40;18.10;;;;;;;9.43;48.42;101748.42;117352;1182;22816;-57
2021/10/20 03:32:50;;;;;;;27.50;18.00;;;;;;;9.47;48.51;101746.05;117365;1185;23464;-61
2021/10/20 03:35:18;;;;;;;26.70;18.10;;;;;;;9.50;48.40;101745.73;117416;1182;21923;-58
2021/10/20 03:37:47;;;;;;;30.10;18.30;;;;;;;9.58;48.47;101748.98;117441;1185;23494;-57
2021/10/20 03:40:15;;;;;;;26.60;17.60;;;;;;;9.62;48.49;101746.94;117346;1180;22915;-57
2021/10/20 03:42:44;;;;;;;27.70;17.30;;;;;;;9.65;48.50;101744.00;117387;1182;23460;-60
2021/10/20 03:45:13;;;;;;;24.30;16.30;;;;;;;9.66;48.47;101743.32;117327;1183;23589;-58
2021/10/20 03:47:41;;;;;;;25.70;16.70;;;;;;;9.69;48.60;101747.73;117332;1183;21873;-61
2021/10/20 03:50:10;;;;;;;22.80;16.90;;;;;;;9.69;48.52;101746.34;117353;1186;23004;-61
2021/10/20 03:52:38;;;;;;;24.90;17.80;;;;;;;9.71;48.42;101747.75;117409;1184;23478;-58
2021/10/20 03:55:07;;;;;;;25.40;18.60;;;;;;;9.77;48.50;101749.75;117394;1186;22615;-58
2021/10/20 03:57:36;;;;;;;23.80;16.60;;;;;;;9.80;48.33;101748.75;117376;1182;21860;-57
2021/10/20 04:00:06;;;;;;;21.60;16.50;;;;;;;9.80;48.30;101747.88;117433;1179;21860;-61
2021/10/20 04:02:35;;;;;;;34.00;17.40;;;;;;;9.80;48.45;101746.30;117353;1182;23438;-57
2021/10/20 04:05:04;;;;;;;24.10;17.70;;;;;;;9.81;48.50;101748.77;117489;1182;21857;-61
2021/10/20 04:07:32;;;;;;;25.00;16.50;;;;;;;9.85;48.44;101746.01;117334;1186;24296;-58
2021/10/20 04:10:00;;;;;;;25.90;16.10;;;;;;;9.90;48.40;101748.71;117399;1182;23464;-62
2021/10/20 04:12:29;;;;;;;26.30;18.00;;;;;;;9.96;48.47;101747.20;117391;1179;23461;-61
2021/10/20 04:14:57;;;;;;;22.90;17.10;;;;;;;9.95;48.45;101747.52;117420;1183;22932;-58
2021/10/20 04:17:38;;;;;;;27.80;18.80;;;;;;;9.92;48.51;101746.63;117417;1186;23449;-61
2021/10/20 04:20:07;;;;;;;30.50;18.40;;;;;;;9.90;48.40;101747.47;117444;1184;21920;-58
2021/10/20 04:22:36;;;;;;;29.10;18.10;;;;;;;9.88;48.52;101748.85;117509;1182;22497;-61
2021/10/20 04:25:05;;;;;;;30.10;18.00;;;;;;;9.88;48.64;101740.80;117480;1179;22969;-60
2021/10/20 04:27:34;;;;;;;27.70;17.10;;;;;;;9.93;48.55;101734.02;117462;1186;21848;-60
2021/10/20 04:30:04;;;;;;;23.80;16.50;;;;;;;9.94;48.44;101731.39;117364;1183;23464;-58
2021/10/20 04:32:33;;;;;;;28.50;17.80;;;;;;;9.94;48.43;101730.69;117406;1185;21899;-58
2021/10/20 04:35:01;;;;;;;25.40;17.10;;;;;;;9.95;48.41;101729.30;117390;1186;22914;-60
2021/10/20 04:37:30;;;;;;;29.70;16.20;;;;;;;9.95;48.51;101729.65;117421;1182;23547;-60
2021/10/20 04:39:59;;;;;;;29.80;17.80;;;;;;;9.94;48.42;101730.70;117531;1182;22661;-58
2021/10/20 04:42:29;;;;;;;28.60;18.60;;;;;;;9.97;48.46;101726.69;117377;1183;22685;-58
2021/10/20 04:44:57;;;;;;;29.60;17.40;;;;;;;9.99;48.41;101727.77;117323;1183;21861;-58
2021/10/20 04:47:26;;;;;;;32.40;19.50;;;;;;;10.01;48.53;101730.41;119485;1182;22142;-59
2021/10/20 04:49:56;;;;;;;32.70;20.30;;;;;;;10.01;48.45;101732.52;117706;1185;21857;-60
2021/10/20 04:52:25;;;;;;;31.70;18.60;;;;;;;9.99;48.55;101733.36;117392;1183;23448;-61
2021/10/20 04:54:54;;;;;;;29.00;20.20;;;;;;;9.98;48.48;101734.41;117410;1182;21845;-59
2021/10/20 04:57:22;;;;;;;32.90;19.10;;;;;;;9.98;48.41;101737.58;117456;1183;23455;-60
2021/10/20 04:59:50;;;;;;;28.20;18.60;;;;;;;9.99;48.45;101738.98;117516;1176;21902;-59
2021/10/20 05:02:19;;;;;;;28.40;18.60;;;;;;;9.99;48.55;101742.84;117327;1182;23465;-60
2021/10/20 05:04:47;;;;;;;33.90;19.50;;;;;;;9.96;48.47;101751.39;117365;1186;24165;-59
2021/10/20 05:07:16;;;;;;;26.70;18.60;;;;;;;9.93;48.54;101757.88;117320;1183;23515;-60
2021/10/20 05:09:45;;;;;;;31.90;18.40;;;;;;;9.95;48.50;101765.42;117366;1182;21867;-61
2021/10/20 05:12:13;;;;;;;27.00;18.70;;;;;;;9.95;48.55;101772.44;117424;1186;23452;-58
2021/10/20 05:14:51;;;;;;;30.00;19.10;;;;;;;9.89;48.70;101775.34;117342;1185;23423;-60
2021/10/20 05:17:19;;;;;;;28.80;18.00;;;;;;;9.93;48.68;101779.60;117342;1183;21861;-60
2021/10/20 05:20:08;;;;;;;24.20;18.00;;;;;;;9.97;48.60;101781.58;117461;1182;23590;-58
2021/10/20 05:22:36;;;;;;;29.50;18.20;;;;;;;10.01;48.75;101780.58;117424;1183;23474;-60
2021/10/20 05:25:06;;;;;;;31.30;20.10;;;;;;;10.09;48.87;101782.42;117495;1186;23556;-57
2021/10/20 05:27:35;;;;;;;31.50;20.30;;;;;;;10.09;48.93;101781.73;117451;1185;21858;-57
2021/10/20 05:30:04;;;;;;;30.60;22.00;;;;;;;10.13;48.88;101785.64;117446;1182;21907;-57
2021/10/20 05:32:35;;;;;;;31.80;20.90;;;;;;;10.11;48.79;101789.12;117431;1186;23544;-60
2021/10/20 05:35:04;;;;;;;29.50;20.50;;;;;;;10.17;48.74;101789.19;117278;1183;23449;-57
2021/10/20 05:37:32;;;;;;;32.70;21.10;;;;;;;10.21;48.62;101786.95;117965;1184;22918;-57
2021/10/20 05:40:00;;;;;;;33.50;21.70;;;;;;;10.21;48.65;101786.08;117499;1182;24697;-60
2021/10/20 05:42:29;;;;;;;32.00;21.60;;;;;;;10.21;48.73;101787.31;117362;1184;21854;-56
2021/10/20 05:44:57;;;;;;;33.40;21.10;;;;;;;10.25;48.70;101784.55;117348;1184;24162;-57
2021/10/20 05:47:26;;;;;;;37.10;23.50;;;;;;;10.28;48.94;101786.50;117309;1186;21858;-58
2021/10/20 05:49:54;;;;;;;31.20;22.00;;;;;;;10.32;49.16;101787.27;117352;1185;21855;-60
2021/10/20 05:52:22;;;;;;;31.50;22.10;;;;;;;10.52;49.17;101790.48;117310;1184;24165;-61
2021/10/20 05:54:50;;;;;;;33.50;22.40;;;;;;;10.63;49.11;101787.61;117328;1183;22827;-61
2021/10/20 05:57:19;;;;;;;32.50;22.80;;;;;;;10.74;49.15;101789.48;117377;1183;23452;-61
2021/10/20 05:59:49;;;;;;;30.90;22.10;;;;;;;10.90;49.31;101789.80;117555;1182;22624;-57
2021/10/20 06:02:17;;;;;;;30.20;22.10;;;;;;;11.05;49.27;101789.93;117418;1183;24148;-60
2021/10/20 06:04:46;;;;;;;47.60;32.60;;;;;;;11.20;49.43;101794.45;117363;1179;23620;-60
2021/10/20 06:07:14;;;;;;;38.00;25.50;;;;;;;11.32;49.58;101797.33;117410;1185;23438;-62
2021/10/20 06:09:43;;;;;;;37.40;25.20;;;;;;;11.56;49.55;101791.35;117383;1182;22823;-58
2021/10/20 06:12:19;;;;;;;35.20;24.60;;;;;;;11.82;49.60;101788.15;117424;1182;23465;-57
2021/10/20 06:15:07;;;;;;;35.20;23.30;;;;;;;12.07;49.66;101786.02;117376;1186;21850;-61
2021/10/20 06:17:55;;;;;;;33.20;24.10;;;;;;;12.29;49.82;101788.91;117288;1183;23547;-60
2021/10/20 06:20:24;;;;;;;37.70;23.70;;;;;;;12.49;49.80;101788.26;117358;1182;23449;-57
2021/10/20 06:22:52;;;;;;;34.40;23.70;;;;;;;12.71;50.11;101786.18;117365;1184;23468;-57
2021/10/20 06:25:20;;;;;;;31.60;22.20;;;;;;;12.93;49.93;101786.03;117367;1182;23456;-57
2021/10/20 06:27:49;;;;;;;40.60;23.60;;;;;;;13.15;49.96;101786.73;117308;1183;24085;-61
2021/10/20 06:30:17;;;;;;;29.90;23.00;;;;;;;13.36;49.78;101788.48;117360;1183;23556;-61
2021/10/20 06:32:45;;;;;;;33.30;21.80;;;;;;;13.56;50.07;101784.77;117395;1186;21848;-61
2021/10/20 06:35:14;;;;;;;29.10;20.70;;;;;;;13.74;49.99;101787.89;117388;1183;23447;-61
2021/10/20 06:37:47;;;;;;;25.60;19.90;;;;;;;13.91;49.94;101789.61;117402;1183;23480;-56
2021/10/20 06:40:15;;;;;;;26.30;19.30;;;;;;;14.10;50.17;101786.00;117365;1182;22844;-61
2021/10/20 06:42:44;;;;;;;24.70;18.60;;;;;;;14.26;49.97;101788.22;117309;1183;22908;-62
2021/10/20 06:45:12;;;;;;;27.40;19.40;;;;;;;14.42;49.89;101780.54;117365;1185;24153;-61
2021/10/20 06:47:42;;;;;;;28.40;19.80;;;;;;;14.55;50.02;101785.23;117418;1184;24155;-61
2021/10/20 06:50:11;;;;;;;27.40;18.80;;;;;;;14.71;50.13;101787.79;117439;1185;22631;-57
2021/10/20 06:52:44;;;;;;;29.20;19.00;;;;;;;14.90;50.21;101781.84;117337;1182;23469;-62
2021/10/20 06:55:12;;;;;;;26.00;19.40;;;;;;;15.04;50.09;101785.96;117401;1184;22150;-61
2021/10/20 06:57:41;;;;;;;26.70;19.00;;;;;;;15.17;50.04;101790.10;117414;1186;21848;-58
2021/10/20 07:00:11;;;;;;;27.40;19.80;;;;;;;15.30;50.05;101785.91;117492;1183;22081;-58
2021/10/20 07:02:39;;;;;;;27.00;18.20;;;;;;;15.46;49.98;101782.38;117388;1185;22935;-62
2021/10/20 07:05:08;;;;;;;26.40;16.50;;;;;;;15.61;50.06;101780.11;117366;1182;23438;-58
2021/10/20 07:07:37;;;;;;;27.40;16.40;;;;;;;15.76;50.12;101781.89;117425;1185;21866;-62
2021/10/20 07:10:06;;;;;;;23.80;17.10;;;;;;;15.88;49.97;101783.54;117438;1185;21854;-62
2021/10/20 07:12:38;;;;;;;24.70;17.90;;;;;;;15.95;49.82;101777.63;117403;1185;23894;-58
2021/10/20 07:15:07;;;;;;;27.20;16.70;;;;;;;15.99;49.59;101778.81;117409;1184;23442;-62
2021/10/20 07:17:36;;;;;;;23.10;15.70;;;;;;;15.97;49.46;101777.77;117425;1185;22126;-62
2021/10/20 07:20:05;;;;;;;21.20;15.40;;;;;;;16.00;49.54;101773.50;117448;1182;21853;-62
2021/10/20 07:22:38;;;;;;;21.20;14.80;;;;;;;16.02;49.58;101772.94;117322;1185;21964;-58
2021/10/20 07:25:08;;;;;;;17.50;13.70;;;;;;;16.09;49.51;101771.80;117380;1182;21855;-57
2021/10/20 07:27:37;;;;;;;16.00;12.80;;;;;;;16.13;49.42;101767.30;117398;1184;22629;-61
2021/10/20 07:30:07;;;;;;;19.50;13.50;;;;;;;16.13;49.42;101767.84;117416;1185;21854;-61
2021/10/20 07:32:39;;;;;;;16.00;12.30;;;;;;;16.13;49.30;101766.23;117374;1185;23648;-57
2021/10/20 07:35:13;;;;;;;17.10;12.40;;;;;;;16.21;49.48;101767.19;117408;1184;21861;-62
2021/10/20 07:37:41;;;;;;;19.00;12.60;;;;;;;16.32;49.50;101765.45;117438;1186;22927;-62
2021/10/20 07:40:11;;;;;;;17.30;12.30;;;;;;;16.46;49.57;101768.45;117393;1181;21855;-58
2021/10/20 07:42:39;;;;;;;17.00;12.60;;;;;;;16.59;49.63;101767.89;117476;1183;24222;-57
2021/10/20 07:45:08;;;;;;;17.10;12.50;;;;;;;16.74;49.62;101769.97;117423;1183;21864;-57
2021/10/20 07:47:39;;;;;;;17.20;12.50;;;;;;;16.88;49.57;101765.66;117403;1183;23470;-62
2021/10/20 07:50:07;;;;;;;18.20;12.60;;;;;;;16.99;49.55;101760.36;117451;1183;23496;-62
2021/10/20 07:52:36;;;;;;;16.90;11.80;;;;;;;17.12;49.61;101759.44;117381;1185;21923;-61
2021/10/20 07:55:06;;;;;;;17.50;11.60;;;;;;;17.24;49.55;101758.69;117372;1183;21879;-57
2021/10/20 07:57:35;;;;;;;22.40;13.20;;;;;;;17.37;49.55;101754.73;117418;1184;23445;-62
2021/10/20 08:00:04;;;;;;;18.50;12.80;;;;;;;17.52;49.62;101749.65;117378;1183;22961;-57
2021/10/20 08:02:34;;;;;;;18.50;12.80;;;;;;;17.66;49.55;101744.59;117349;1185;21949;-57
2021/10/20 08:05:03;;;;;;;18.70;12.20;;;;;;;17.79;49.41;101744.33;117351;1183;22848;-62
2021/10/20 08:07:31;;;;;;;18.80;10.90;;;;;;;17.94;49.44;101740.13;117367;1183;21867;-57
2021/10/20 08:09:59;;;;;;;14.50;11.10;;;;;;;18.12;49.42;101731.77;117359;1182;23455;-57
2021/10/20 08:12:28;;;;;;;22.20;12.50;;;;;;;18.31;49.43;101732.05;117379;1185;24632;-58
2021/10/20 08:14:58;;;;;;;16.00;10.40;;;;;;;18.45;49.44;101733.31;117356;1184;23478;-58
2021/10/20 08:17:26;;;;;;;15.40;11.00;;;;;;;18.54;49.45;101726.53;117310;1183;21858;-63
2021/10/20 08:19:55;;;;;;;15.00;10.50;;;;;;;18.66;49.71;101725.36;117387;1182;21919;-62
2021/10/20 08:22:23;;;;;;;13.60;10.40;;;;;;;18.82;49.37;101723.34;117351;1183;21871;-61
2021/10/20 08:24:52;;;;;;;20.10;10.00;;;;;;;18.85;49.30;101723.45;117337;1182;21978;-57
2021/10/20 08:27:21;;;;;;;14.00;10.30;;;;;;;18.93;49.25;101719.88;117304;1182;23689;-61
2021/10/20 08:29:50;;;;;;;15.50;10.60;;;;;;;19.07;49.32;101714.74;117587;1182;22419;-62
2021/10/20 08:32:18;;;;;;;13.50;10.30;;;;;;;19.25;49.43;101710.17;117417;1183;21845;-61
2021/10/20 08:34:48;;;;;;;13.70;9.40;;;;;;;19.44;49.29;101706.45;117380;1184;22837;-57
2021/10/20 08:37:17;;;;;;;15.20;9.20;;;;;;;19.51;49.27;101703.91;117419;1186;21860;-58
2021/10/20 08:39:45;;;;;;;12.30;9.00;;;;;;;19.63;49.14;101702.68;117439;1180;23706;-60
2021/10/20 08:42:14;;;;;;;11.10;9.00;;;;;;;19.76;49.20;101698.73;117391;1185;23450;-65
2021/10/20 08:45:03;;;;;;;14.20;9.30;;;;;;;19.93;49.23;101702.19;117385;1183;23534;-58
2021/10/20 08:47:39;;;;;;;12.60;9.20;;;;;;;20.03;49.04;101700.11;117342;1184;21882;-61
2021/10/20 08:50:08;;;;;;;16.40;10.30;;;;;;;20.07;49.02;101702.13;117397;1185;22784;-58
2021/10/20 08:52:36;;;;;;;18.70;11.60;;;;;;;20.14;49.07;101700.12;117356;1185;22899;-63
2021/10/20 08:55:05;;;;;;;18.80;12.20;;;;;;;20.23;48.90;101699.31;117447;1180;22924;-58
2021/10/20 08:57:34;;;;;;;21.10;13.00;;;;;;;20.30;48.76;101694.08;117356;1183;23451;-57
2021/10/20 09:00:07;;;;;;;17.70;11.80;;;;;;;20.37;48.75;101692.80;117404;1183;22215;-58
2021/10/20 09:02:38;;;;;;;19.40;12.50;;;;;;;20.47;48.85;101691.60;117442;1183;22538;-61
2021/10/20 09:05:12;;;;;;;22.00;12.50;;;;;;;20.56;48.74;101690.04;117353;1183;22622;-62
2021/10/20 09:07:47;;;;;;;18.00;12.70;;;;;;;20.56;48.58;101687.34;117386;1182;22645;-61
2021/10/20 09:10:15;;;;;;;17.20;12.30;;;;;;;20.54;48.53;101682.45;117409;1182;24177;-62
2021/10/20 09:12:44;;;;;;;18.20;10.40;;;;;;;20.55;48.52;101679.39;117481;1183;23547;-61
2021/10/20 09:15:35;;;;;;;14.70;10.90;;;;;;;20.63;48.55;101674.48;117378;1185;23487;-62
2021/10/20 09:18:05;;;;;;;18.70;11.20;;;;;;;20.76;48.65;101672.45;117383;1182;24163;-60
2021/10/20 09:20:38;;;;;;;13.70;9.20;;;;;;;20.90;48.64;101668.95;117364;1188;21868;-55
2021/10/20 09:23:10;;;;;;;12.80;9.30;;;;;;;21.02;48.62;101669.94;117422;1179;22840;-62
2021/10/20 09:25:38;;;;;;;15.40;9.00;;;;;;;21.13;48.52;101666.17;117451;1182;24180;-61
2021/10/20 09:28:12;;;;;;;12.40;8.70;;;;;;;21.23;48.54;101662.75;117504;1185;21965;-60
2021/10/20 09:30:41;;;;;;;15.90;8.90;;;;;;;21.34;48.44;101652.56;117426;1182;21858;-57
2021/10/20 09:33:10;;;;;;;13.00;9.00;;;;;;;21.42;48.42;101644.59;117395;1182;22620;-62
2021/10/20 09:35:38;;;;;;;10.80;8.50;;;;;;;21.53;48.44;101644.51;117391;1182;21865;-63
2021/10/20 09:38:07;;;;;;;12.10;8.60;;;;;;;21.59;48.23;101645.20;117391;1176;21858;-63
2021/10/20 09:40:44;;;;;;;11.60;8.40;;;;;;;21.57;48.05;101640.61;117405;1184;21902;-57
2021/10/20 09:43:15;;;;;;;11.70;8.30;;;;;;;21.54;48.30;101637.16;117396;1183;24217;-62
2021/10/20 09:45:43;;;;;;;11.60;8.20;;;;;;;21.61;48.41;101640.30;117403;1183;21863;-62
2021/10/20 09:48:18;;;;;;;13.10;8.90;;;;;;;21.72;48.36;101639.72;117486;1179;22809;-58
2021/10/20 09:50:56;;;;;;;11.00;8.20;;;;;;;21.82;48.13;101634.30;117419;1185;21858;-62
2021/10/20 09:53:28;;;;;;;12.30;8.20;;;;;;;21.92;48.23;101626.23;117355;1184;24165;-57
2021/10/20 09:56:00;;;;;;;10.50;8.10;;;;;;;21.97;48.10;101626.92;117412;1184;21864;-62
2021/10/20 09:58:30;;;;;;;10.90;8.20;;;;;;;21.96;47.85;101630.91;117360;1185;23629;-58
2021/10/20 10:00:59;;;;;;;11.30;7.90;;;;;;;21.95;47.72;101630.95;117434;1182;22742;-58
2021/10/20 10:03:28;;;;;;;11.90;8.20;;;;;;;21.91;47.71;101630.56;117442;1183;22241;-58
2021/10/20 10:05:56;;;;;;;10.70;7.80;;;;;;;21.87;47.73;101631.46;117492;1185;22094;-62
2021/10/20 10:08:26;;;;;;;11.90;7.50;;;;;;;21.89;47.68;101626.90;117413;1185;22976;-63
2021/10/20 10:10:54;;;;;;;10.30;7.10;;;;;;;21.91;47.68;101622.70;117458;1182;22932;-57
2021/10/20 10:13:25;;;;;;;9.60;8.20;;;;;;;21.92;47.77;101620.20;117334;1186;23563;-58
2021/10/20 10:15:54;;;;;;;10.20;7.40;;;;;;;21.91;47.64;101617.38;117412;1186;21958;-62
2021/10/20 10:18:23;;;;;;;11.80;8.50;;;;;;;21.92;47.56;101620.55;117421;1185;23483;-56
2021/10/20 10:20:52;;;;;;;13.70;9.80;;;;;;;21.94;47.63;101614.36;117471;1185;23471;-62
2021/10/20 10:23:25;;;;;;;13.90;10.40;;;;;;;21.96;47.46;101610.90;117371;1185;21870;-59
2021/10/20 10:26:02;;;;;;;12.60;8.50;;;;;;;21.89;47.27;101610.30;117472;1184;22914;-58
2021/10/20 10:28:34;;;;;;;15.20;11.10;;;;;;;21.80;47.33;101611.72;117440;1182;24280;-58
2021/10/20 10:31:04;;;;;;;13.60;10.50;;;;;;;21.78;47.34;101605.16;117466;1182;21866;-58
2021/10/20 10:33:38;;;;;;;;;;;;;;;21.72;47.23;101604.71;117406;1184;24217;-57
2021/10/20 10:36:20;;;;;;;15.20;10.50;;;;;;;21.62;47.18;101600.98;117400;1184;21889;-57
2021/10/20 10:38:49;;;;;;;14.50;11.80;;;;;;;21.57;47.24;101599.02;117436;1186;21858;-57
2021/10/20 10:41:18;;;;;;;16.00;10.60;;;;;;;21.58;47.27;101595.41;117441;1184;21905;-57
2021/10/20 10:44:07;;;;;;;12.70;10.40;;;;;;;21.61;47.35;101594.02;117461;1185;21864;-62
2021/10/20 10:46:57;;;;;;;15.70;10.10;;;;;;;21.64;47.19;101590.20;117401;1183;23589;-57
2021/10/20 10:49:49;;;;;;;13.70;9.30;;;;;;;21.60;47.15;101582.50;117422;1182;24139;-57
2021/10/20 10:52:21;;;;;;;17.10;11.10;;;;;;;21.59;47.21;101583.05;117410;1187;21859;-61
2021/10/20 10:55:24;;;;;;;12.70;9.10;;;;;;;21.53;47.14;101580.95;117421;1182;23547;-58
2021/10/20 10:57:57;;;;;;;14.10;9.50;;;;;;;21.48;46.97;101572.59;117013;1184;22918;-58
2021/10/20 11:00:47;;;;;;;17.20;10.40;;;;;;;21.42;46.98;101569.06;117036;1187;23579;-58
2021/10/20 11:03:17;;;;;;;13.60;9.30;;;;;;;21.41;47.11;101568.40;117010;1186;22949;-64
2021/10/20 11:05:50;;;;;;;12.60;8.70;;;;;;;21.38;47.00;101564.20;117069;1186;23550;-63
2021/10/20 11:08:18;;;;;;;10.90;8.30;;;;;;;21.31;47.07;101561.46;117007;1179;23496;-63
2021/10/20 11:10:47;;;;;;;10.60;7.90;;;;;;;21.29;47.14;101561.87;117007;1186;23564;-63
2021/10/20 11:13:16;;;;;;;18.90;8.00;;;;;;;21.27;47.06;101561.23;117042;1182;21863;-59
2021/10/20 11:15:45;;;;;;;10.80;7.70;;;;;;;21.25;47.03;101556.16;116979;1188;21858;-59
2021/10/20 11:18:34;;;;;;;44.20;26.60;;;;;;;21.23;46.89;101557.64;116978;1189;24161;-63
2021/10/20 11:21:04;;;;;;;16.20;12.60;;;;;;;21.21;46.91;101552.73;117038;1186;21861;-64